sensor_id;sensor_type;location;lat;lon;timestamp;P1;durP1;ratioP1;P2;durP2;ratioP2
35576;SDS011;21680;52.400;16.920;2023-06-10T00:02:15;7.60;;;5.80;;
35576;SDS011;21680;52.400;16.920;2023-06-10T00:04:42;15.50;;;6.50;;
35576;SDS011;21680;52.400;16.920;2023-06-10T00:07:07;22.40;;;6.60;;
35576;SDS011;21680;52.400;16.920;2023-06-10T00:09:36;9.60;;;6.60;;
35576;SDS011;21680;52.400;16.920;2023-06-10T00:12:06;11.10;;;6.70;;
35576;SDS011;21680;52.400;16.920;2023-06-10T00:14:33;13.90;;;6.70;;
35576;SDS011;21680;52.400;16.920;2023-06-10T00:16:59;16.50;;;6.50;;
35576;SDS011;21680;52.400;16.920;2023-06-10T00:19:24;11.40;;;6.80;;
35576;SDS011;21680;52.400;16.920;2023-06-10T00:21:55;9.80;;;6.20;;
35576;SDS011;21680;52.400;16.920;2023-06-10T00:24:21;11.70;;;7.10;;
35576;SDS011;21680;52.400;16.920;2023-06-10T00:26:47;12.20;;;6.50;;
35576;SDS011;21680;52.400;16.920;2023-06-10T00:29:12;10.00;;;7.00;;
35576;SDS011;21680;52.400;16.920;2023-06-10T00:31:39;12.20;;;7.00;;
35576;SDS011;21680;52.400;16.920;2023-06-10T00:34:04;11.40;;;6.60;;
35576;SDS011;21680;52.400;16.920;2023-06-10T00:36:30;16.00;;;7.00;;
35576;SDS011;21680;52.400;16.920;2023-06-10T00:38:56;11.10;;;6.60;;
35576;SDS011;21680;52.400;16.920;2023-06-10T00:41:22;11.90;;;7.50;;
35576;SDS011;21680;52.400;16.920;2023-06-10T00:43:47;11.50;;;7.40;;
35576;SDS011;21680;52.400;16.920;2023-06-10T00:46:13;14.90;;;6.60;;
35576;SDS011;21680;52.400;16.920;2023-06-10T00:48:39;19.20;;;8.10;;
35576;SDS011;21680;52.400;16.920;2023-06-10T00:51:06;16.10;;;7.90;;
35576;SDS011;21680;52.400;16.920;2023-06-10T00:53:34;11.50;;;7.30;;
35576;SDS011;21680;52.400;16.920;2023-06-10T00:56:04;10.80;;;6.80;;
35576;SDS011;21680;52.400;16.920;2023-06-10T00:58:30;12.80;;;6.80;;
35576;SDS011;21680;52.400;16.920;2023-06-10T01:00:56;13.20;;;7.50;;
35576;SDS011;21680;52.400;16.920;2023-06-10T01:03:22;13.30;;;6.10;;
35576;SDS011;21680;52.400;16.920;2023-06-10T01:05:50;9.80;;;6.20;;
35576;SDS011;21680;52.400;16.920;2023-06-10T01:11:34;11.00;;;6.10;;
35576;SDS011;21680;52.400;16.920;2023-06-10T01:14:06;10.80;;;6.80;;
35576;SDS011;21680;52.400;16.920;2023-06-10T01:16:33;10.70;;;6.30;;
35576;SDS011;21680;52.400;16.920;2023-06-10T01:19:01;14.40;;;6.60;;
35576;SDS011;21680;52.400;16.920;2023-06-10T01:21:26;14.50;;;6.60;;
35576;SDS011;21680;52.400;16.920;2023-06-10T01:23:54;9.40;;;6.10;;
35576;SDS011;21680;52.400;16.920;2023-06-10T01:26:26;8.40;;;6.30;;
35576;SDS011;21680;52.400;16.920;2023-06-10T01:29:11;16.70;;;7.20;;
35576;SDS011;21680;52.400;16.920;2023-06-10T01:31:48;9.30;;;6.10;;
35576;SDS011;21680;52.400;16.920;2023-06-10T01:34:17;7.70;;;5.90;;
35576;SDS011;21680;52.400;16.920;2023-06-10T01:36:47;9.70;;;6.30;;
35576;SDS011;21680;52.400;16.920;2023-06-10T01:39:15;13.60;;;6.10;;
35576;SDS011;21680;52.400;16.920;2023-06-10T01:41:41;14.90;;;7.10;;
35576;SDS011;21680;52.400;16.920;2023-06-10T01:44:07;11.10;;;6.30;;
35576;SDS011;21680;52.400;16.920;2023-06-10T01:46:33;11.50;;;5.80;;
35576;SDS011;21680;52.400;16.920;2023-06-10T01:48:58;13.40;;;6.40;;
35576;SDS011;21680;52.400;16.920;2023-06-10T01:51:23;11.30;;;7.10;;
35576;SDS011;21680;52.400;16.920;2023-06-10T01:53:49;14.90;;;6.90;;
35576;SDS011;21680;52.400;16.920;2023-06-10T01:56:14;11.40;;;6.20;;
35576;SDS011;21680;52.400;16.920;2023-06-10T01:58:44;14.20;;;6.70;;
35576;SDS011;21680;52.400;16.920;2023-06-10T02:01:10;15.40;;;5.80;;
35576;SDS011;21680;52.400;16.920;2023-06-10T02:03:36;8.50;;;6.40;;
35576;SDS011;21680;52.400;16.920;2023-06-10T02:06:01;10.70;;;6.30;;
35576;SDS011;21680;52.400;16.920;2023-06-10T02:08:26;15.20;;;7.50;;
35576;SDS011;21680;52.400;16.920;2023-06-10T02:10:52;12.80;;;7.00;;
35576;SDS011;21680;52.400;16.920;2023-06-10T02:13:18;9.50;;;6.10;;
35576;SDS011;21680;52.400;16.920;2023-06-10T02:15:44;10.70;;;6.20;;
35576;SDS011;21680;52.400;16.920;2023-06-10T02:18:09;10.70;;;6.10;;
35576;SDS011;21680;52.400;16.920;2023-06-10T02:20:36;12.20;;;7.00;;
35576;SDS011;21680;52.400;16.920;2023-06-10T02:23:02;12.90;;;7.50;;
35576;SDS011;21680;52.400;16.920;2023-06-10T02:25:28;15.50;;;7.10;;
35576;SDS011;21680;52.400;16.920;2023-06-10T02:27:53;15.20;;;6.90;;
35576;SDS011;21680;52.400;16.920;2023-06-10T02:30:18;10.60;;;5.70;;
35576;SDS011;21680;52.400;16.920;2023-06-10T02:32:44;13.80;;;6.40;;
35576;SDS011;21680;52.400;16.920;2023-06-10T02:35:13;16.20;;;6.60;;
35576;SDS011;21680;52.400;16.920;2023-06-10T02:37:39;14.40;;;6.60;;
35576;SDS011;21680;52.400;16.920;2023-06-10T02:40:05;15.70;;;6.70;;
35576;SDS011;21680;52.400;16.920;2023-06-10T02:42:31;11.40;;;6.70;;
35576;SDS011;21680;52.400;16.920;2023-06-10T02:44:56;11.70;;;6.60;;
35576;SDS011;21680;52.400;16.920;2023-06-10T02:47:21;10.60;;;6.20;;
35576;SDS011;21680;52.400;16.920;2023-06-10T02:49:47;13.40;;;6.90;;
35576;SDS011;21680;52.400;16.920;2023-06-10T02:52:12;16.70;;;7.00;;
35576;SDS011;21680;52.400;16.920;2023-06-10T02:54:37;12.40;;;6.50;;
35576;SDS011;21680;52.400;16.920;2023-06-10T02:57:03;7.80;;;5.70;;
35576;SDS011;21680;52.400;16.920;2023-06-10T02:59:28;13.20;;;5.90;;
35576;SDS011;21680;52.400;16.920;2023-06-10T03:01:54;8.40;;;5.90;;
35576;SDS011;21680;52.400;16.920;2023-06-10T03:04:19;8.70;;;5.70;;
35576;SDS011;21680;52.400;16.920;2023-06-10T03:06:45;10.90;;;6.30;;
35576;SDS011;21680;52.400;16.920;2023-06-10T03:09:12;16.70;;;7.30;;
35576;SDS011;21680;52.400;16.920;2023-06-10T03:11:38;19.70;;;6.60;;
35576;SDS011;21680;52.400;16.920;2023-06-10T03:14:03;14.80;;;6.50;;
35576;SDS011;21680;52.400;16.920;2023-06-10T03:16:29;13.20;;;6.50;;
35576;SDS011;21680;52.400;16.920;2023-06-10T03:18:55;12.80;;;6.20;;
35576;SDS011;21680;52.400;16.920;2023-06-10T03:21:20;13.50;;;5.90;;
35576;SDS011;21680;52.400;16.920;2023-06-10T03:23:46;14.10;;;6.10;;
35576;SDS011;21680;52.400;16.920;2023-06-10T03:26:11;12.30;;;6.00;;
35576;SDS011;21680;52.400;16.920;2023-06-10T03:28:39;13.40;;;6.20;;
35576;SDS011;21680;52.400;16.920;2023-06-10T03:31:05;12.00;;;7.40;;
35576;SDS011;21680;52.400;16.920;2023-06-10T03:33:30;10.40;;;5.90;;
35576;SDS011;21680;52.400;16.920;2023-06-10T03:35:56;11.90;;;6.60;;
35576;SDS011;21680;52.400;16.920;2023-06-10T03:38:21;8.50;;;5.30;;
35576;SDS011;21680;52.400;16.920;2023-06-10T03:40:46;9.20;;;6.10;;
35576;SDS011;21680;52.400;16.920;2023-06-10T03:43:12;12.60;;;6.40;;
35576;SDS011;21680;52.400;16.920;2023-06-10T03:45:37;13.20;;;6.40;;
35576;SDS011;21680;52.400;16.920;2023-06-10T03:48:03;8.90;;;6.30;;
35576;SDS011;21680;52.400;16.920;2023-06-10T03:50:29;10.80;;;6.10;;
35576;SDS011;21680;52.400;16.920;2023-06-10T03:52:55;9.30;;;5.90;;
35576;SDS011;21680;52.400;16.920;2023-06-10T03:55:20;10.10;;;6.20;;
35576;SDS011;21680;52.400;16.920;2023-06-10T03:57:46;12.60;;;5.90;;
35576;SDS011;21680;52.400;16.920;2023-06-10T04:00:13;9.10;;;5.50;;
35576;SDS011;21680;52.400;16.920;2023-06-10T04:02:40;9.60;;;5.80;;
35576;SDS011;21680;52.400;16.920;2023-06-10T04:05:14;17.50;;;7.10;;
35576;SDS011;21680;52.400;16.920;2023-06-10T04:07:41;10.90;;;5.70;;
35576;SDS011;21680;52.400;16.920;2023-06-10T04:10:08;9.10;;;6.10;;
35576;SDS011;21680;52.400;16.920;2023-06-10T04:12:34;10.90;;;5.30;;
35576;SDS011;21680;52.400;16.920;2023-06-10T04:15:00;10.60;;;4.90;;
35576;SDS011;21680;52.400;16.920;2023-06-10T04:17:25;12.40;;;5.20;;
35576;SDS011;21680;52.400;16.920;2023-06-10T04:19:51;14.70;;;5.60;;
35576;SDS011;21680;52.400;16.920;2023-06-10T04:22:17;9.70;;;5.90;;
35576;SDS011;21680;52.400;16.920;2023-06-10T04:24:43;11.70;;;5.40;;
35576;SDS011;21680;52.400;16.920;2023-06-10T04:27:08;10.50;;;6.00;;
35576;SDS011;21680;52.400;16.920;2023-06-10T04:29:33;8.30;;;5.00;;
35576;SDS011;21680;52.400;16.920;2023-06-10T04:31:59;11.90;;;6.10;;
35576;SDS011;21680;52.400;16.920;2023-06-10T04:34:26;10.90;;;5.70;;
35576;SDS011;21680;52.400;16.920;2023-06-10T04:36:52;8.90;;;5.90;;
35576;SDS011;21680;52.400;16.920;2023-06-10T04:39:17;9.30;;;6.20;;
35576;SDS011;21680;52.400;16.920;2023-06-10T04:41:43;11.50;;;5.60;;
35576;SDS011;21680;52.400;16.920;2023-06-10T04:44:08;18.50;;;6.20;;
35576;SDS011;21680;52.400;16.920;2023-06-10T04:46:34;16.90;;;6.40;;
35576;SDS011;21680;52.400;16.920;2023-06-10T04:48:59;7.90;;;5.50;;
35576;SDS011;21680;52.400;16.920;2023-06-10T04:51:24;10.70;;;5.90;;
35576;SDS011;21680;52.400;16.920;2023-06-10T04:53:50;12.50;;;6.00;;
35576;SDS011;21680;52.400;16.920;2023-06-10T04:56:16;12.50;;;6.10;;
35576;SDS011;21680;52.400;16.920;2023-06-10T04:58:41;13.20;;;6.00;;
35576;SDS011;21680;52.400;16.920;2023-06-10T05:01:06;17.30;;;6.00;;
35576;SDS011;21680;52.400;16.920;2023-06-10T05:03:32;13.60;;;6.10;;
35576;SDS011;21680;52.400;16.920;2023-06-10T05:05:57;11.10;;;5.70;;
35576;SDS011;21680;52.400;16.920;2023-06-10T05:08:22;11.80;;;5.70;;
35576;SDS011;21680;52.400;16.920;2023-06-10T05:10:48;16.90;;;6.40;;
35576;SDS011;21680;52.400;16.920;2023-06-10T05:13:13;12.20;;;6.10;;
35576;SDS011;21680;52.400;16.920;2023-06-10T05:15:38;12.20;;;5.40;;
35576;SDS011;21680;52.400;16.920;2023-06-10T05:18:03;12.30;;;5.80;;
35576;SDS011;21680;52.400;16.920;2023-06-10T05:20:29;14.10;;;5.80;;
35576;SDS011;21680;52.400;16.920;2023-06-10T05:22:54;10.60;;;5.60;;
35576;SDS011;21680;52.400;16.920;2023-06-10T05:25:20;15.60;;;6.00;;
35576;SDS011;21680;52.400;16.920;2023-06-10T05:27:45;11.50;;;5.90;;
35576;SDS011;21680;52.400;16.920;2023-06-10T05:30:10;10.40;;;5.80;;
35576;SDS011;21680;52.400;16.920;2023-06-10T05:32:36;13.90;;;5.40;;
35576;SDS011;21680;52.400;16.920;2023-06-10T05:35:01;19.50;;;6.50;;
35576;SDS011;21680;52.400;16.920;2023-06-10T05:37:28;14.20;;;6.00;;
35576;SDS011;21680;52.400;16.920;2023-06-10T05:39:54;10.70;;;5.50;;
35576;SDS011;21680;52.400;16.920;2023-06-10T05:42:19;8.60;;;5.10;;
35576;SDS011;21680;52.400;16.920;2023-06-10T05:44:45;6.60;;;4.20;;
35576;SDS011;21680;52.400;16.920;2023-06-10T05:47:10;13.30;;;5.00;;
35576;SDS011;21680;52.400;16.920;2023-06-10T05:49:35;10.60;;;5.10;;
35576;SDS011;21680;52.400;16.920;2023-06-10T05:52:00;13.00;;;6.00;;
35576;SDS011;21680;52.400;16.920;2023-06-10T05:54:26;17.50;;;5.70;;
35576;SDS011;21680;52.400;16.920;2023-06-10T05:56:51;15.50;;;6.60;;
35576;SDS011;21680;52.400;16.920;2023-06-10T05:59:17;12.30;;;6.00;;
35576;SDS011;21680;52.400;16.920;2023-06-10T06:01:42;11.00;;;6.10;;
35576;SDS011;21680;52.400;16.920;2023-06-10T06:04:07;12.20;;;5.70;;
35576;SDS011;21680;52.400;16.920;2023-06-10T06:06:33;10.30;;;5.40;;
35576;SDS011;21680;52.400;16.920;2023-06-10T06:08:59;12.80;;;5.30;;
35576;SDS011;21680;52.400;16.920;2023-06-10T06:11:25;15.90;;;5.80;;
35576;SDS011;21680;52.400;16.920;2023-06-10T06:13:51;12.00;;;5.20;;
35576;SDS011;21680;52.400;16.920;2023-06-10T06:16:16;10.30;;;5.50;;
35576;SDS011;21680;52.400;16.920;2023-06-10T06:18:43;10.80;;;5.00;;
35576;SDS011;21680;52.400;16.920;2023-06-10T06:21:08;12.10;;;5.30;;
35576;SDS011;21680;52.400;16.920;2023-06-10T06:23:34;10.60;;;5.40;;
35576;SDS011;21680;52.400;16.920;2023-06-10T06:25:59;12.00;;;5.60;;
35576;SDS011;21680;52.400;16.920;2023-06-10T06:28:24;11.80;;;4.90;;
35576;SDS011;21680;52.400;16.920;2023-06-10T06:30:54;16.90;;;5.60;;
35576;SDS011;21680;52.400;16.920;2023-06-10T06:33:19;10.60;;;5.60;;
35576;SDS011;21680;52.400;16.920;2023-06-10T06:35:44;12.50;;;5.40;;
35576;SDS011;21680;52.400;16.920;2023-06-10T06:38:10;7.40;;;4.70;;
35576;SDS011;21680;52.400;16.920;2023-06-10T06:40:35;8.90;;;4.90;;
35576;SDS011;21680;52.400;16.920;2023-06-10T06:43:00;9.00;;;4.80;;
35576;SDS011;21680;52.400;16.920;2023-06-10T06:45:26;13.80;;;5.60;;
35576;SDS011;21680;52.400;16.920;2023-06-10T06:47:51;10.40;;;5.00;;
35576;SDS011;21680;52.400;16.920;2023-06-10T06:50:16;14.30;;;5.90;;
35576;SDS011;21680;52.400;16.920;2023-06-10T06:52:41;12.30;;;5.10;;
35576;SDS011;21680;52.400;16.920;2023-06-10T06:55:07;10.90;;;5.60;;
35576;SDS011;21680;52.400;16.920;2023-06-10T06:57:32;13.10;;;5.20;;
35576;SDS011;21680;52.400;16.920;2023-06-10T06:59:57;11.30;;;5.60;;
35576;SDS011;21680;52.400;16.920;2023-06-10T07:02:23;10.10;;;4.80;;
35576;SDS011;21680;52.400;16.920;2023-06-10T07:04:48;10.50;;;5.10;;
35576;SDS011;21680;52.400;16.920;2023-06-10T07:07:14;12.70;;;5.10;;
35576;SDS011;21680;52.400;16.920;2023-06-10T07:09:40;10.60;;;4.80;;
35576;SDS011;21680;52.400;16.920;2023-06-10T07:12:06;14.10;;;5.70;;
35576;SDS011;21680;52.400;16.920;2023-06-10T07:14:31;16.00;;;5.60;;
35576;SDS011;21680;52.400;16.920;2023-06-10T07:16:56;12.10;;;5.50;;
35576;SDS011;21680;52.400;16.920;2023-06-10T07:19:22;16.70;;;6.60;;
35576;SDS011;21680;52.400;16.920;2023-06-10T07:21:47;12.90;;;6.00;;
35576;SDS011;21680;52.400;16.920;2023-06-10T07:24:12;15.20;;;5.80;;
35576;SDS011;21680;52.400;16.920;2023-06-10T07:26:38;8.70;;;5.20;;
35576;SDS011;21680;52.400;16.920;2023-06-10T07:29:03;13.60;;;5.50;;
35576;SDS011;21680;52.400;16.920;2023-06-10T07:31:28;13.00;;;5.40;;
35576;SDS011;21680;52.400;16.920;2023-06-10T07:33:54;10.00;;;5.00;;
35576;SDS011;21680;52.400;16.920;2023-06-10T07:36:19;9.80;;;5.00;;
35576;SDS011;21680;52.400;16.920;2023-06-10T07:38:44;12.70;;;5.20;;
35576;SDS011;21680;52.400;16.920;2023-06-10T07:41:09;9.00;;;5.40;;
35576;SDS011;21680;52.400;16.920;2023-06-10T07:43:36;11.60;;;5.10;;
35576;SDS011;21680;52.400;16.920;2023-06-10T07:46:02;10.90;;;5.40;;
35576;SDS011;21680;52.400;16.920;2023-06-10T07:48:27;10.40;;;5.00;;
35576;SDS011;21680;52.400;16.920;2023-06-10T07:50:52;10.30;;;5.20;;
35576;SDS011;21680;52.400;16.920;2023-06-10T07:53:18;9.10;;;4.90;;
35576;SDS011;21680;52.400;16.920;2023-06-10T07:55:43;12.00;;;4.90;;
35576;SDS011;21680;52.400;16.920;2023-06-10T07:58:09;11.60;;;5.00;;
35576;SDS011;21680;52.400;16.920;2023-06-10T08:00:35;8.50;;;5.40;;
35576;SDS011;21680;52.400;16.920;2023-06-10T08:03:00;9.30;;;5.40;;
35576;SDS011;21680;52.400;16.920;2023-06-10T08:05:26;9.70;;;4.90;;
35576;SDS011;21680;52.400;16.920;2023-06-10T08:07:51;11.30;;;4.60;;
35576;SDS011;21680;52.400;16.920;2023-06-10T08:10:16;11.30;;;4.80;;
35576;SDS011;21680;52.400;16.920;2023-06-10T08:12:41;11.90;;;5.00;;
35576;SDS011;21680;52.400;16.920;2023-06-10T08:15:07;11.80;;;5.90;;
35576;SDS011;21680;52.400;16.920;2023-06-10T08:17:32;11.90;;;5.40;;
35576;SDS011;21680;52.400;16.920;2023-06-10T08:19:58;11.10;;;4.50;;
35576;SDS011;21680;52.400;16.920;2023-06-10T08:22:23;13.50;;;5.50;;
35576;SDS011;21680;52.400;16.920;2023-06-10T08:24:49;13.90;;;4.40;;
35576;SDS011;21680;52.400;16.920;2023-06-10T08:27:14;12.50;;;4.20;;
35576;SDS011;21680;52.400;16.920;2023-06-10T08:29:39;11.60;;;4.70;;
35576;SDS011;21680;52.400;16.920;2023-06-10T08:32:05;9.50;;;4.90;;
35576;SDS011;21680;52.400;16.920;2023-06-10T08:34:32;9.00;;;4.80;;
35576;SDS011;21680;52.400;16.920;2023-06-10T08:37:00;11.50;;;4.80;;
35576;SDS011;21680;52.400;16.920;2023-06-10T08:39:25;11.60;;;4.60;;
35576;SDS011;21680;52.400;16.920;2023-06-10T08:44:35;13.10;;;4.50;;
35576;SDS011;21680;52.400;16.920;2023-06-10T08:47:11;12.60;;;4.90;;
35576;SDS011;21680;52.400;16.920;2023-06-10T08:49:41;9.90;;;4.40;;
35576;SDS011;21680;52.400;16.920;2023-06-10T08:52:19;10.90;;;3.90;;
35576;SDS011;21680;52.400;16.920;2023-06-10T08:55:04;17.00;;;4.80;;
35576;SDS011;21680;52.400;16.920;2023-06-10T08:57:35;10.10;;;4.60;;
35576;SDS011;21680;52.400;16.920;2023-06-10T09:00:01;6.60;;;3.80;;
35576;SDS011;21680;52.400;16.920;2023-06-10T09:02:28;12.80;;;4.70;;
35576;SDS011;21680;52.400;16.920;2023-06-10T09:04:53;8.20;;;4.10;;
35576;SDS011;21680;52.400;16.920;2023-06-10T09:07:22;9.30;;;4.20;;
35576;SDS011;21680;52.400;16.920;2023-06-10T09:09:48;10.30;;;4.30;;
35576;SDS011;21680;52.400;16.920;2023-06-10T09:12:14;6.30;;;4.10;;
35576;SDS011;21680;52.400;16.920;2023-06-10T09:14:41;10.70;;;4.00;;
35576;SDS011;21680;52.400;16.920;2023-06-10T09:17:07;6.20;;;3.90;;
35576;SDS011;21680;52.400;16.920;2023-06-10T09:19:32;10.90;;;4.10;;
35576;SDS011;21680;52.400;16.920;2023-06-10T09:21:57;15.60;;;4.00;;
35576;SDS011;21680;52.400;16.920;2023-06-10T09:24:23;12.40;;;5.00;;
35576;SDS011;21680;52.400;16.920;2023-06-10T09:26:49;9.70;;;4.10;;
35576;SDS011;21680;52.400;16.920;2023-06-10T09:29:16;9.20;;;4.10;;
35576;SDS011;21680;52.400;16.920;2023-06-10T09:31:41;10.50;;;4.10;;
35576;SDS011;21680;52.400;16.920;2023-06-10T09:34:12;5.30;;;3.10;;
35576;SDS011;21680;52.400;16.920;2023-06-10T09:36:39;5.20;;;4.20;;
35576;SDS011;21680;52.400;16.920;2023-06-10T09:39:12;12.10;;;5.10;;
35576;SDS011;21680;52.400;16.920;2023-06-10T09:41:42;6.90;;;4.30;;
35576;SDS011;21680;52.400;16.920;2023-06-10T09:44:19;5.80;;;4.70;;
35576;SDS011;21680;52.400;16.920;2023-06-10T09:46:47;11.80;;;4.00;;
35576;SDS011;21680;52.400;16.920;2023-06-10T09:49:19;10.90;;;4.30;;
35576;SDS011;21680;52.400;16.920;2023-06-10T09:51:54;7.20;;;4.40;;
35576;SDS011;21680;52.400;16.920;2023-06-10T09:54:20;7.30;;;3.90;;
35576;SDS011;21680;52.400;16.920;2023-06-10T09:56:51;8.80;;;4.50;;
35576;SDS011;21680;52.400;16.920;2023-06-10T09:59:29;7.70;;;4.60;;
35576;SDS011;21680;52.400;16.920;2023-06-10T10:01:56;12.30;;;5.10;;
35576;SDS011;21680;52.400;16.920;2023-06-10T10:04:25;6.30;;;3.80;;
35576;SDS011;21680;52.400;16.920;2023-06-10T10:06:51;11.70;;;4.50;;
35576;SDS011;21680;52.400;16.920;2023-06-10T10:09:16;8.80;;;4.30;;
35576;SDS011;21680;52.400;16.920;2023-06-10T10:11:41;6.50;;;4.00;;
35576;SDS011;21680;52.400;16.920;2023-06-10T10:14:09;7.40;;;3.90;;
35576;SDS011;21680;52.400;16.920;2023-06-10T10:16:36;11.30;;;4.20;;
35576;SDS011;21680;52.400;16.920;2023-06-10T10:19:12;6.80;;;4.20;;
35576;SDS011;21680;52.400;16.920;2023-06-10T10:21:49;8.20;;;4.50;;
35576;SDS011;21680;52.400;16.920;2023-06-10T10:24:18;5.30;;;4.10;;
35576;SDS011;21680;52.400;16.920;2023-06-10T10:26:51;10.80;;;5.50;;
35576;SDS011;21680;52.400;16.920;2023-06-10T10:29:30;9.40;;;4.20;;
35576;SDS011;21680;52.400;16.920;2023-06-10T10:32:01;9.20;;;4.60;;
35576;SDS011;21680;52.400;16.920;2023-06-10T10:37:19;14.00;;;4.10;;
35576;SDS011;21680;52.400;16.920;2023-06-10T10:39:45;11.10;;;4.40;;
35576;SDS011;21680;52.400;16.920;2023-06-10T10:42:11;4.90;;;3.60;;
35576;SDS011;21680;52.400;16.920;2023-06-10T10:44:38;6.50;;;3.70;;
35576;SDS011;21680;52.400;16.920;2023-06-10T10:47:04;10.60;;;4.60;;
35576;SDS011;21680;52.400;16.920;2023-06-10T10:49:33;17.40;;;4.10;;
35576;SDS011;21680;52.400;16.920;2023-06-10T10:52:01;7.30;;;4.20;;
35576;SDS011;21680;52.400;16.920;2023-06-10T10:57:10;14.10;;;4.40;;
35576;SDS011;21680;52.400;16.920;2023-06-10T10:59:57;9.50;;;5.00;;
35576;SDS011;21680;52.400;16.920;2023-06-10T11:02:42;6.90;;;3.70;;
35576;SDS011;21680;52.400;16.920;2023-06-10T11:05:09;8.40;;;4.20;;
35576;SDS011;21680;52.400;16.920;2023-06-10T11:07:36;9.80;;;4.10;;
35576;SDS011;21680;52.400;16.920;2023-06-10T11:10:13;6.10;;;3.60;;
35576;SDS011;21680;52.400;16.920;2023-06-10T11:15:10;11.20;;;4.80;;
35576;SDS011;21680;52.400;16.920;2023-06-10T11:20:44;9.40;;;4.20;;
35576;SDS011;21680;52.400;16.920;2023-06-10T11:28:40;6.70;;;4.40;;
35576;SDS011;21680;52.400;16.920;2023-06-10T11:31:06;8.80;;;4.00;;
35576;SDS011;21680;52.400;16.920;2023-06-10T11:33:32;11.10;;;4.20;;
35576;SDS011;21680;52.400;16.920;2023-06-10T11:35:58;7.10;;;4.30;;
35576;SDS011;21680;52.400;16.920;2023-06-10T11:38:23;9.80;;;4.20;;
35576;SDS011;21680;52.400;16.920;2023-06-10T11:40:49;11.00;;;4.40;;
35576;SDS011;21680;52.400;16.920;2023-06-10T11:43:18;7.40;;;4.00;;
35576;SDS011;21680;52.400;16.920;2023-06-10T11:45:44;11.10;;;4.30;;
35576;SDS011;21680;52.400;16.920;2023-06-10T11:48:10;7.00;;;3.70;;
35576;SDS011;21680;52.400;16.920;2023-06-10T11:50:37;4.60;;;3.80;;
35576;SDS011;21680;52.400;16.920;2023-06-10T11:53:02;7.30;;;3.90;;
35576;SDS011;21680;52.400;16.920;2023-06-10T11:55:44;5.60;;;3.70;;
35576;SDS011;21680;52.400;16.920;2023-06-10T11:58:14;10.50;;;4.90;;
35576;SDS011;21680;52.400;16.920;2023-06-10T12:00:47;9.90;;;4.30;;
35576;SDS011;21680;52.400;16.920;2023-06-10T12:03:13;9.70;;;3.70;;
35576;SDS011;21680;52.400;16.920;2023-06-10T12:05:39;9.10;;;4.50;;
35576;SDS011;21680;52.400;16.920;2023-06-10T12:08:11;13.70;;;3.90;;
35576;SDS011;21680;52.400;16.920;2023-06-10T12:10:43;8.20;;;3.60;;
35576;SDS011;21680;52.400;16.920;2023-06-10T12:13:09;6.40;;;4.10;;
35576;SDS011;21680;52.400;16.920;2023-06-10T12:15:34;8.40;;;4.40;;
35576;SDS011;21680;52.400;16.920;2023-06-10T12:18:00;7.00;;;3.60;;
35576;SDS011;21680;52.400;16.920;2023-06-10T12:20:30;6.20;;;3.80;;
35576;SDS011;21680;52.400;16.920;2023-06-10T12:22:59;5.90;;;4.00;;
35576;SDS011;21680;52.400;16.920;2023-06-10T12:25:26;5.90;;;4.30;;
35576;SDS011;21680;52.400;16.920;2023-06-10T12:27:54;6.30;;;3.40;;
35576;SDS011;21680;52.400;16.920;2023-06-10T12:30:21;9.10;;;4.60;;
35576;SDS011;21680;52.400;16.920;2023-06-10T12:32:49;6.60;;;3.50;;
35576;SDS011;21680;52.400;16.920;2023-06-10T12:35:22;15.10;;;4.00;;
35576;SDS011;21680;52.400;16.920;2023-06-10T12:37:55;7.10;;;3.60;;
35576;SDS011;21680;52.400;16.920;2023-06-10T12:40:40;9.00;;;4.60;;
35576;SDS011;21680;52.400;16.920;2023-06-10T12:43:06;12.90;;;4.50;;
35576;SDS011;21680;52.400;16.920;2023-06-10T12:45:33;7.70;;;3.80;;
35576;SDS011;21680;52.400;16.920;2023-06-10T12:48:06;6.90;;;4.20;;
35576;SDS011;21680;52.400;16.920;2023-06-10T12:50:36;6.80;;;3.60;;
35576;SDS011;21680;52.400;16.920;2023-06-10T12:53:02;7.80;;;4.10;;
35576;SDS011;21680;52.400;16.920;2023-06-10T12:55:28;8.10;;;4.10;;
35576;SDS011;21680;52.400;16.920;2023-06-10T12:57:54;8.20;;;4.10;;
35576;SDS011;21680;52.400;16.920;2023-06-10T13:00:20;8.10;;;4.20;;
35576;SDS011;21680;52.400;16.920;2023-06-10T13:02:45;6.30;;;3.40;;
35576;SDS011;21680;52.400;16.920;2023-06-10T13:05:13;7.00;;;3.80;;
35576;SDS011;21680;52.400;16.920;2023-06-10T13:07:38;9.20;;;3.80;;
35576;SDS011;21680;52.400;16.920;2023-06-10T13:10:04;10.40;;;3.60;;
35576;SDS011;21680;52.400;16.920;2023-06-10T13:12:29;7.00;;;3.40;;
35576;SDS011;21680;52.400;16.920;2023-06-10T13:14:55;6.80;;;3.80;;
35576;SDS011;21680;52.400;16.920;2023-06-10T13:17:21;7.20;;;3.40;;
35576;SDS011;21680;52.400;16.920;2023-06-10T13:19:46;5.80;;;3.70;;
35576;SDS011;21680;52.400;16.920;2023-06-10T13:22:14;6.50;;;3.70;;
35576;SDS011;21680;52.400;16.920;2023-06-10T13:24:39;8.90;;;3.40;;
35576;SDS011;21680;52.400;16.920;2023-06-10T13:27:06;5.50;;;3.40;;
35576;SDS011;21680;52.400;16.920;2023-06-10T13:29:32;6.60;;;3.60;;
35576;SDS011;21680;52.400;16.920;2023-06-10T13:31:57;8.50;;;3.40;;
35576;SDS011;21680;52.400;16.920;2023-06-10T13:34:22;8.60;;;3.20;;
35576;SDS011;21680;52.400;16.920;2023-06-10T13:36:48;8.70;;;3.40;;
35576;SDS011;21680;52.400;16.920;2023-06-10T13:39:13;7.90;;;3.30;;
35576;SDS011;21680;52.400;16.920;2023-06-10T13:41:40;9.40;;;3.60;;
35576;SDS011;21680;52.400;16.920;2023-06-10T13:44:06;5.60;;;3.40;;
35576;SDS011;21680;52.400;16.920;2023-06-10T13:46:31;10.90;;;3.80;;
35576;SDS011;21680;52.400;16.920;2023-06-10T13:48:57;9.20;;;3.60;;
35576;SDS011;21680;52.400;16.920;2023-06-10T13:51:22;10.00;;;3.70;;
35576;SDS011;21680;52.400;16.920;2023-06-10T13:53:47;7.30;;;4.10;;
35576;SDS011;21680;52.400;16.920;2023-06-10T13:56:13;8.90;;;4.00;;
35576;SDS011;21680;52.400;16.920;2023-06-10T13:58:39;7.20;;;3.60;;
35576;SDS011;21680;52.400;16.920;2023-06-10T14:01:06;7.80;;;4.00;;
35576;SDS011;21680;52.400;16.920;2023-06-10T14:03:32;12.20;;;3.30;;
35576;SDS011;21680;52.400;16.920;2023-06-10T14:05:57;9.20;;;3.50;;
35576;SDS011;21680;52.400;16.920;2023-06-10T14:08:23;14.80;;;3.70;;
35576;SDS011;21680;52.400;16.920;2023-06-10T14:10:48;13.70;;;3.70;;
35576;SDS011;21680;52.400;16.920;2023-06-10T14:13:15;4.60;;;2.90;;
35576;SDS011;21680;52.400;16.920;2023-06-10T14:15:42;5.50;;;3.10;;
35576;SDS011;21680;52.400;16.920;2023-06-10T14:18:07;7.20;;;3.50;;
35576;SDS011;21680;52.400;16.920;2023-06-10T14:20:32;7.40;;;3.50;;
35576;SDS011;21680;52.400;16.920;2023-06-10T14:22:57;8.20;;;3.50;;
35576;SDS011;21680;52.400;16.920;2023-06-10T14:25:23;8.70;;;3.10;;
35576;SDS011;21680;52.400;16.920;2023-06-10T14:27:49;6.80;;;2.90;;
35576;SDS011;21680;52.400;16.920;2023-06-10T14:30:15;6.80;;;3.10;;
35576;SDS011;21680;52.400;16.920;2023-06-10T14:32:40;6.70;;;3.20;;
35576;SDS011;21680;52.400;16.920;2023-06-10T14:35:06;7.80;;;2.90;;
35576;SDS011;21680;52.400;16.920;2023-06-10T14:37:31;6.40;;;3.00;;
35576;SDS011;21680;52.400;16.920;2023-06-10T14:39:57;8.70;;;3.00;;
35576;SDS011;21680;52.400;16.920;2023-06-10T14:42:22;8.00;;;3.30;;
35576;SDS011;21680;52.400;16.920;2023-06-10T14:44:47;4.10;;;3.10;;
35576;SDS011;21680;52.400;16.920;2023-06-10T14:47:12;8.00;;;3.10;;